createdAt,value
2022-08-19T00:00:06.853Z,99.99
2022-08-19T00:02:11.343Z,99.99
2022-08-19T00:03:10.892Z,99.99
2022-08-19T00:05:14.920Z,99.99
2022-08-19T00:06:14.936Z,99.99
2022-08-19T00:08:08.422Z,99.99
2022-08-19T00:09:07.898Z,99.99
2022-08-19T00:11:11.915Z,99.99
2022-08-19T00:12:11.934Z,99.99
2022-08-19T00:14:16.433Z,99.99
2022-08-19T00:15:15.965Z,99.99
2022-08-19T00:17:09.451Z,99.99
2022-08-19T00:18:08.925Z,99.99
2022-08-19T00:20:13.924Z,99.99
2022-08-19T00:21:12.973Z,99.99
2022-08-19T00:23:16.990Z,99.99
2022-08-19T00:24:17.019Z,99.99
2022-08-19T00:26:21.506Z,99.99
2022-08-19T00:27:24.960Z,99.99
2022-08-19T00:29:25.078Z,99.99
2022-08-19T00:30:25.098Z,99.99
2022-08-19T00:32:29.590Z,99.99
2022-08-19T00:33:29.144Z,99.99
2022-08-19T00:35:33.166Z,99.99
2022-08-19T00:36:33.197Z,99.99
2022-08-19T00:38:38.336Z,99.99
2022-08-19T00:39:37.287Z,99.99
2022-08-19T00:41:41.259Z,99.99
2022-08-19T00:42:41.272Z,99.99
2022-08-19T00:44:45.767Z,99.99
2022-08-19T00:45:45.323Z,99.99
2022-08-19T00:47:38.265Z,99.99
2022-08-19T00:48:38.288Z,99.99
2022-08-19T00:50:51.941Z,99.99
2022-08-19T00:51:42.327Z,99.99
2022-08-19T00:53:46.361Z,99.99
2022-08-19T00:54:49.651Z,99.99
2022-08-19T00:56:50.865Z,99.99
2022-08-19T00:57:50.410Z,99.99
2022-08-19T01:00:01.509Z,99.99
2022-08-19T01:00:54.474Z,99.99
2022-08-19T01:02:58.481Z,99.99
2022-08-19T01:03:58.882Z,99.99
2022-08-19T01:06:03.056Z,99.99
2022-08-19T01:07:02.540Z,99.99
2022-08-19T01:09:06.565Z,99.99
2022-08-19T01:10:06.591Z,99.99
2022-08-19T01:12:11.075Z,99.99
2022-08-19T01:13:10.623Z,99.99
2022-08-19T01:15:14.657Z,99.99
2022-08-19T01:16:14.670Z,99.99
2022-08-19T01:18:08.154Z,99.99
2022-08-19T01:19:07.632Z,99.99
2022-08-19T01:21:11.658Z,99.99
2022-08-19T01:22:14.568Z,99.99
2022-08-19T01:24:16.168Z,99.99
2022-08-19T01:25:15.719Z,99.99
2022-08-19T01:27:10.815Z,99.99
2022-08-19T01:28:10.689Z,99.99
2022-08-19T01:30:12.705Z,99.99
2022-08-19T01:31:26.464Z,99.99
2022-08-19T01:33:17.215Z,99.99
2022-08-19T01:34:16.766Z,99.99
2022-08-19T01:36:20.787Z,99.99
2022-08-19T01:37:25.003Z,99.99
2022-08-19T01:39:25.303Z,99.99
2022-08-19T01:40:24.848Z,99.99
2022-08-19T01:42:30.136Z,99.99
2022-08-19T01:43:28.890Z,99.99
2022-08-19T01:45:33.385Z,99.99
2022-08-19T01:46:32.931Z,99.99
2022-08-19T01:48:36.974Z,99.99
2022-08-19T01:49:37.006Z,99.99
2022-08-19T01:51:30.477Z,99.99
2022-08-19T01:52:29.972Z,99.99
2022-08-19T01:54:34.477Z,99.99
2022-08-19T01:55:34.026Z,99.99
2022-08-19T01:57:27.000Z,99.99
2022-08-19T01:58:27.015Z,99.99
2022-08-19T02:00:31.515Z,99.99
2022-08-19T02:01:31.391Z,99.99
2022-08-19T02:03:35.084Z,99.99
2022-08-19T02:04:35.106Z,99.99
2022-08-19T02:06:39.600Z,99.99
2022-08-19T02:07:39.145Z,99.99
2022-08-19T02:09:43.199Z,99.99
2022-08-19T02:10:43.230Z,99.99
2022-08-19T02:12:50.715Z,99.99
2022-08-19T02:13:47.253Z,99.99
2022-08-19T02:15:51.292Z,99.99
2022-08-19T02:16:51.297Z,99.99
2022-08-19T02:18:55.795Z,99.99
2022-08-19T02:19:55.335Z,99.99
2022-08-19T02:21:59.371Z,99.99
2022-08-19T02:22:59.389Z,99.99
2022-08-19T02:25:03.891Z,99.99
2022-08-19T02:26:03.423Z,99.99
2022-08-19T02:27:56.398Z,99.99
2022-08-19T02:28:56.410Z,99.99
2022-08-19T02:31:00.924Z,99.99
2022-08-19T02:32:00.450Z,99.99
2022-08-19T02:34:04.481Z,99.99
2022-08-19T02:35:04.516Z,99.99
2022-08-19T02:37:08.994Z,99.99
2022-08-19T02:38:08.534Z,99.99
2022-08-19T02:40:12.871Z,99.99
2022-08-19T02:41:12.574Z,99.99
2022-08-19T02:43:17.082Z,99.99
2022-08-19T02:44:30.612Z,99.99
2022-08-19T02:46:09.762Z,99.99
2022-08-19T02:47:09.776Z,99.99
2022-08-19T02:49:14.277Z,99.99
2022-08-19T02:50:13.817Z,99.99
2022-08-19T02:52:17.841Z,99.99
2022-08-19T02:53:17.860Z,99.99
2022-08-19T02:55:22.356Z,99.99
2022-08-19T02:56:21.902Z,99.99
2022-08-19T02:58:25.941Z,99.99
2022-08-19T02:59:25.956Z,99.99
2022-08-19T03:01:30.532Z,99.99
2022-08-19T03:02:30.005Z,99.99
2022-08-19T03:04:34.029Z,99.99
2022-08-19T03:05:48.084Z,99.99
2022-08-19T03:07:27.046Z,99.99
2022-08-19T03:08:27.028Z,99.99
2022-08-19T03:10:31.029Z,99.99
2022-08-19T03:11:31.054Z,99.99
2022-08-19T03:13:27.528Z,99.99
2022-08-19T03:14:24.209Z,99.99
2022-08-19T03:16:28.720Z,99.99
2022-08-19T03:17:28.740Z,99.99
2022-08-19T03:18:28.764Z,99.99
2022-08-19T03:19:28.793Z,99.99
2022-08-19T03:20:28.823Z,99.99
2022-08-19T03:21:28.848Z,99.99
2022-08-19T03:22:28.874Z,99.99
2022-08-19T03:23:28.900Z,99.99
2022-08-19T03:24:28.928Z,99.99
2022-08-19T03:25:28.955Z,99.99
2022-08-19T03:26:28.988Z,99.99
2022-08-19T03:27:34.185Z,99.99
2022-08-19T03:28:29.041Z,99.99
2022-08-19T03:29:30.972Z,99.99
2022-08-19T03:30:29.092Z,99.99
2022-08-19T03:31:44.156Z,99.99
2022-08-19T03:32:32.577Z,99.99
2022-08-19T03:33:29.172Z,99.99
2022-08-19T03:34:29.201Z,99.99
2022-08-19T03:35:29.227Z,99.99
2022-08-19T03:36:29.539Z,99.99
2022-08-19T03:37:29.285Z,99.99
2022-08-19T03:38:29.310Z,99.99
2022-08-19T03:39:29.405Z,99.99
2022-08-19T03:40:29.367Z,99.99
2022-08-19T03:41:44.455Z,99.99
2022-08-19T03:42:38.705Z,99.99
2022-08-19T03:43:29.468Z,99.99
2022-08-19T03:44:29.478Z,99.99
2022-08-19T03:45:29.502Z,99.99
2022-08-19T03:46:29.528Z,99.99
2022-08-19T03:47:29.556Z,99.99
2022-08-19T03:48:29.584Z,99.99
2022-08-19T03:49:29.607Z,99.99
2022-08-19T03:50:29.646Z,99.99
2022-08-19T03:51:30.840Z,99.99
2022-08-19T03:52:29.694Z,99.99
2022-08-19T03:53:29.716Z,99.99
2022-08-19T03:54:29.747Z,99.99
2022-08-19T03:55:29.776Z,99.99
2022-08-19T03:56:29.803Z,99.99
2022-08-19T03:57:31.740Z,99.99
2022-08-19T03:58:29.855Z,99.99
2022-08-19T03:59:29.882Z,99.99
2022-08-19T04:00:29.910Z,99.99
2022-08-19T04:01:34.785Z,99.99
2022-08-19T04:02:29.970Z,99.99
2022-08-19T04:03:29.993Z,99.99
2022-08-19T04:04:30.037Z,99.99
2022-08-19T04:05:30.051Z,99.99
2022-08-19T04:06:30.075Z,99.99
2022-08-19T04:07:30.107Z,99.99
2022-08-19T04:08:30.129Z,99.99
2022-08-19T04:09:30.158Z,99.99
2022-08-19T04:10:30.188Z,99.99
2022-08-19T04:11:42.972Z,99.99
2022-08-19T04:12:30.237Z,99.99
2022-08-19T04:13:30.264Z,99.99
2022-08-19T04:14:30.292Z,99.99
2022-08-19T04:15:30.320Z,99.99
2022-08-19T04:16:34.950Z,99.99
2022-08-19T04:17:30.373Z,99.99
2022-08-19T04:18:33.575Z,99.99
2022-08-19T04:19:30.427Z,99.99
2022-08-19T04:20:30.455Z,99.99
2022-08-19T04:21:30.485Z,99.99
2022-08-19T04:22:30.512Z,99.99
2022-08-19T04:23:30.539Z,99.99
2022-08-19T04:24:30.567Z,99.99
2022-08-19T04:25:30.590Z,99.99
2022-08-19T04:26:30.631Z,99.99
2022-08-19T04:27:30.650Z,99.99
2022-08-19T04:28:30.673Z,99.99
2022-08-19T04:29:30.702Z,99.99
2022-08-19T04:30:30.728Z,99.99
2022-08-19T04:31:30.754Z,99.99
2022-08-19T04:32:30.785Z,99.99
2022-08-19T04:33:30.809Z,99.99
2022-08-19T04:34:30.839Z,99.99
2022-08-19T04:35:30.864Z,99.99
2022-08-19T04:36:30.890Z,99.99
2022-08-19T04:37:35.071Z,99.99
2022-08-19T04:38:30.947Z,99.99
2022-08-19T04:39:31.023Z,99.99
2022-08-19T04:40:31.002Z,99.99
2022-08-19T04:41:31.027Z,99.99
2022-08-19T04:42:31.195Z,99.99
2022-08-19T04:43:31.079Z,99.99
2022-08-19T04:44:31.112Z,99.99
2022-08-19T04:45:38.816Z,99.99
2022-08-19T04:46:39.663Z,99.99
2022-08-19T04:47:49.313Z,99.99
2022-08-19T04:48:31.216Z,99.99
2022-08-19T04:49:31.247Z,99.99
2022-08-19T04:50:31.273Z,99.99
2022-08-19T04:51:31.303Z,99.99
2022-08-19T04:52:31.326Z,99.99
2022-08-19T04:53:37.713Z,99.99
2022-08-19T04:54:37.751Z,99.99
2022-08-19T04:55:34.365Z,99.99
2022-08-19T04:56:31.468Z,99.99
2022-08-19T04:57:31.464Z,99.99
2022-08-19T04:58:31.491Z,99.99
2022-08-19T04:59:31.521Z,99.99
2022-08-19T05:00:31.547Z,99.99
2022-08-19T05:01:31.633Z,99.99
2022-08-19T05:02:31.602Z,99.99
2022-08-19T05:03:31.628Z,99.99
2022-08-19T05:04:31.671Z,99.99
2022-08-19T05:05:31.680Z,99.99
2022-08-19T05:06:31.713Z,99.99
2022-08-19T05:07:31.738Z,99.99
2022-08-19T05:08:31.860Z,99.99
2022-08-19T05:09:42.174Z,99.99
2022-08-19T05:10:31.820Z,99.99
2022-08-19T05:11:31.848Z,99.99
2022-08-19T05:12:31.878Z,99.99
2022-08-19T05:13:31.903Z,99.99
2022-08-19T05:14:31.930Z,99.99
2022-08-19T05:15:31.957Z,99.99
2022-08-19T05:16:31.980Z,99.99
2022-08-19T05:17:37.478Z,99.99
2022-08-19T05:18:32.037Z,99.99
2022-08-19T05:19:33.557Z,99.99
2022-08-19T05:20:32.095Z,99.99
2022-08-19T05:21:32.120Z,99.99
2022-08-19T05:22:32.148Z,99.99
2022-08-19T05:23:32.174Z,99.99
2022-08-19T05:24:32.204Z,99.99
2022-08-19T05:25:32.231Z,99.99
2022-08-19T05:26:32.258Z,99.99
2022-08-19T05:27:32.284Z,99.99
2022-08-19T05:28:32.315Z,99.99
2022-08-19T05:29:36.430Z,99.99
2022-08-19T05:30:46.516Z,99.99
2022-08-19T05:31:32.396Z,99.99
2022-08-19T05:32:32.423Z,99.99
2022-08-19T05:33:32.448Z,99.99
2022-08-19T05:34:32.480Z,99.99
2022-08-19T05:35:34.742Z,99.99
2022-08-19T05:36:32.532Z,99.99
2022-08-19T05:37:32.562Z,99.99
2022-08-19T05:38:32.588Z,99.99
2022-08-19T05:39:32.654Z,99.99
2022-08-19T05:40:32.648Z,99.99
2022-08-19T05:41:32.670Z,99.99
2022-08-19T05:42:32.696Z,99.99
2022-08-19T05:43:32.718Z,99.99
2022-08-19T05:44:32.752Z,99.99
2022-08-19T05:45:32.775Z,99.99
2022-08-19T05:46:32.805Z,99.99
2022-08-19T05:47:32.836Z,99.99
2022-08-19T05:48:32.862Z,99.99
2022-08-19T05:49:32.892Z,99.99
2022-08-19T05:50:32.915Z,99.99
2022-08-19T05:51:32.947Z,99.99
2022-08-19T05:52:33.457Z,99.99
2022-08-19T05:53:33.010Z,99.99
2022-08-19T05:54:33.030Z,99.99
2022-08-19T05:55:33.053Z,99.99
2022-08-19T05:56:33.083Z,99.99
2022-08-19T05:57:33.112Z,99.99
2022-08-19T05:58:33.137Z,99.99
2022-08-19T05:59:33.163Z,99.99
2022-08-19T06:00:33.192Z,99.99
2022-08-19T06:01:33.220Z,99.99
2022-08-19T06:02:33.303Z,99.99
2022-08-19T06:03:33.275Z,99.99
2022-08-19T06:04:33.306Z,99.99
2022-08-19T06:05:33.333Z,99.99
2022-08-19T06:06:33.356Z,99.99
2022-08-19T06:07:33.386Z,99.99
2022-08-19T06:08:34.185Z,99.99
2022-08-19T06:09:33.448Z,99.99
2022-08-19T06:10:33.473Z,99.99
2022-08-19T06:11:33.501Z,99.99
2022-08-19T06:12:33.529Z,99.99
2022-08-19T06:13:35.238Z,99.99
2022-08-19T06:14:33.587Z,99.99
2022-08-19T06:15:33.611Z,99.99
2022-08-19T06:16:33.660Z,99.99
2022-08-19T06:17:33.672Z,99.99
2022-08-19T06:18:33.698Z,99.99
2022-08-19T06:19:33.729Z,99.99
2022-08-19T06:20:54.461Z,94.92
2022-08-19T06:21:33.787Z,93.23
2022-08-19T06:22:33.815Z,91.59
2022-08-19T06:23:33.847Z,92.02
2022-08-19T06:24:33.876Z,90.57
2022-08-19T06:25:33.905Z,90.81
2022-08-19T06:26:33.987Z,89.50
2022-08-19T06:27:33.965Z,87.99
2022-08-19T06:28:33.997Z,86.40
2022-08-19T06:29:34.033Z,84.66
2022-08-19T06:30:34.056Z,84.41
2022-08-19T06:31:34.089Z,83.92
2022-08-19T06:32:34.122Z,81.02
2022-08-19T06:33:34.152Z,81.40
2022-08-19T06:34:34.211Z,80.82
2022-08-19T06:35:34.233Z,80.15
2022-08-19T06:36:34.247Z,80.92
2022-08-19T06:37:34.276Z,81.30
2022-08-19T06:38:34.308Z,81.89
2022-08-19T06:39:34.384Z,81.15
2022-08-19T06:40:34.443Z,80.38
2022-08-19T06:41:34.405Z,79.99
2022-08-19T06:42:34.436Z,79.22
2022-08-19T06:43:34.491Z,79.90
2022-08-19T06:44:34.500Z,79.60
2022-08-19T06:45:39.266Z,79.99
2022-08-19T06:46:35.292Z,80.28
2022-08-19T06:47:34.600Z,79.22
2022-08-19T06:48:38.991Z,79.74
2022-08-19T06:49:34.666Z,79.74
2022-08-19T06:50:34.696Z,79.10
2022-08-19T06:51:34.733Z,77.55
2022-08-19T06:52:34.762Z,77.94
2022-08-19T06:53:34.796Z,76.87
2022-08-19T06:54:37.777Z,77.06
2022-08-19T06:55:34.861Z,77.65
2022-08-19T06:56:34.896Z,77.84
2022-08-19T06:57:34.927Z,78.23
2022-08-19T06:58:34.961Z,78.13
2022-08-19T06:59:34.991Z,78.07
2022-08-19T07:00:35.135Z,76.81
2022-08-19T07:01:35.061Z,77.24
2022-08-19T07:02:35.095Z,76.95
2022-08-19T07:03:35.125Z,75.68
2022-08-19T07:04:35.168Z,75.68
2022-08-19T07:05:35.194Z,75.68
2022-08-19T07:06:43.954Z,75.20
2022-08-19T07:07:35.260Z,75.68
2022-08-19T07:08:35.325Z,75.40
2022-08-19T07:09:35.327Z,75.40
2022-08-19T07:10:35.362Z,76.23
2022-08-19T07:11:35.394Z,76.48
2022-08-19T07:12:36.055Z,77.16
2022-08-19T07:13:35.462Z,77.55
2022-08-19T07:14:35.493Z,77.80
2022-08-19T07:15:35.525Z,78.54
2022-08-19T07:16:36.643Z,80.05
2022-08-19T07:17:35.594Z,81.79
2022-08-19T07:18:35.622Z,81.75
2022-08-19T07:19:35.663Z,82.14
2022-08-19T07:20:35.688Z,83.69
2022-08-19T07:21:35.716Z,83.20
2022-08-19T07:22:35.748Z,83.36
2022-08-19T07:24:35.818Z,84.80
2022-08-19T07:25:35.847Z,85.48
2022-08-19T07:26:35.877Z,85.48
2022-08-19T07:27:35.909Z,85.48
2022-08-19T07:28:35.941Z,84.90
2022-08-19T07:29:35.979Z,85.52
2022-08-19T07:30:36.002Z,85.52
2022-08-19T07:31:36.035Z,84.66
2022-08-19T07:32:36.068Z,83.88
2022-08-19T07:33:36.101Z,83.88
2022-08-19T07:34:36.130Z,83.49
2022-08-19T07:35:36.162Z,84.42
2022-08-19T07:36:36.189Z,84.32
2022-08-19T07:37:36.228Z,85.29
2022-08-19T07:38:36.253Z,85.19
2022-08-19T07:39:36.304Z,85.48
2022-08-19T07:40:36.321Z,85.72
2022-08-19T07:41:36.355Z,84.22
2022-08-19T07:42:36.380Z,84.17
2022-08-19T07:43:36.412Z,84.75
2022-08-19T07:44:36.492Z,84.27
2022-08-19T07:45:36.553Z,83.69
2022-08-19T07:46:36.505Z,82.91
2022-08-19T07:47:49.524Z,83.30
2022-08-19T07:48:43.757Z,82.86
2022-08-19T07:50:30.054Z,82.57
2022-08-19T07:51:37.020Z,82.95
2022-08-19T07:53:39.169Z,81.70
2022-08-19T07:54:33.792Z,81.70
2022-08-19T07:56:37.822Z,82.37
2022-08-19T07:57:37.891Z,82.76
2022-08-19T07:59:42.343Z,81.15
2022-08-19T08:00:41.897Z,81.45
2022-08-19T08:02:45.933Z,81.35
2022-08-19T08:03:45.946Z,81.10
2022-08-19T08:05:50.453Z,80.42
2022-08-19T08:06:50.000Z,79.84
2022-08-19T08:08:54.039Z,78.23
2022-08-19T08:12:01.977Z,78.87
2022-08-19T08:13:09.354Z,78.87
2022-08-19T08:15:02.607Z,78.19
2022-08-19T08:16:02.168Z,78.58
2022-08-19T08:17:55.117Z,78.83
2022-08-19T08:18:55.142Z,79.70
2022-08-19T08:20:59.656Z,79.99
2022-08-19T08:21:59.207Z,80.09
2022-08-19T08:24:03.245Z,81.15
2022-08-19T08:25:03.266Z,81.73
2022-08-19T08:27:11.403Z,81.45
2022-08-19T08:28:07.324Z,81.39
2022-08-19T08:30:11.356Z,79.88
2022-08-19T08:31:11.379Z,79.58
2022-08-19T08:34:15.441Z,77.45
2022-08-19T08:36:19.940Z,77.70
2022-08-19T08:37:19.495Z,78.54
2022-08-19T08:39:23.535Z,78.92
2022-08-19T08:40:23.600Z,80.09
2022-08-19T08:42:28.052Z,80.96
2022-08-19T08:43:27.612Z,80.19
2022-08-19T08:45:32.950Z,81.05
2022-08-19T08:46:32.277Z,81.15
2022-08-19T08:48:36.664Z,80.32
2022-08-19T08:49:35.723Z,79.20
2022-08-19T08:52:39.775Z,77.69
2022-08-19T08:54:48.854Z,76.52
2022-08-19T08:55:43.831Z,77.11
2022-08-19T08:57:37.021Z,77.01
2022-08-19T08:58:36.805Z,77.29
2022-08-19T09:00:41.306Z,76.91
2022-08-19T09:01:40.897Z,76.32
2022-08-19T09:03:44.891Z,75.84
2022-08-19T09:04:44.921Z,76.14
2022-08-19T09:06:49.421Z,77.11
2022-08-19T09:07:49.136Z,76.32
2022-08-19T09:09:53.009Z,75.74
2022-08-19T09:10:55.395Z,76.32
2022-08-19T09:12:57.530Z,77.39
2022-08-19T09:13:57.089Z,76.72
2022-08-19T09:16:02.099Z,76.72
2022-08-19T09:17:01.146Z,76.39
2022-08-19T09:19:06.456Z,77.45
2022-08-19T09:20:05.202Z,77.29
2022-08-19T09:22:09.699Z,76.62
2022-08-19T09:23:09.259Z,75.84
2022-08-19T09:25:13.297Z,75.40
2022-08-19T09:26:13.318Z,75.68
2022-08-19T09:28:21.936Z,74.91
2022-08-19T09:29:06.304Z,75.78
2022-08-19T09:31:10.336Z,75.34
2022-08-19T09:32:26.677Z,74.65
2022-08-19T09:34:21.480Z,72.65
2022-08-19T09:35:14.412Z,72.27
2022-08-19T09:37:18.460Z,71.84
2022-08-19T09:38:18.479Z,72.23
2022-08-19T09:40:23.008Z,72.42
2022-08-19T09:41:22.537Z,72.58
2022-08-19T09:42:30.292Z,72.77
2022-08-19T09:43:32.850Z,72.77
2022-08-19T09:44:22.635Z,72.67
2022-08-19T09:45:22.715Z,72.39
2022-08-19T09:46:22.702Z,72.67
2022-08-19T09:47:22.730Z,72.97
2022-08-19T09:48:23.711Z,72.67
2022-08-19T09:49:22.796Z,72.49
2022-08-19T09:50:22.830Z,72.97
2022-08-19T09:51:23.327Z,72.87
2022-08-19T09:52:22.903Z,72.67
2022-08-19T09:53:22.927Z,72.77
2022-08-19T09:54:23.795Z,73.36
2022-08-19T09:55:22.997Z,73.16
2022-08-19T09:56:23.035Z,72.77
2022-08-19T09:57:23.059Z,72.49
2022-08-19T09:58:26.532Z,72.39
2022-08-19T09:59:23.146Z,71.22
2022-08-19T10:00:23.157Z,71.16
2022-08-19T10:01:23.217Z,71.84
2022-08-19T10:02:23.223Z,70.87
2022-08-19T10:03:25.640Z,70.87
2022-08-19T10:04:23.285Z,70.48
2022-08-19T10:05:27.001Z,70.57
2022-08-19T10:06:45.672Z,71.16
2022-08-19T10:07:23.384Z,70.48
2022-08-19T10:08:23.422Z,69.70
2022-08-19T10:09:33.627Z,69.12
2022-08-19T10:10:23.484Z,68.15
2022-08-19T10:11:28.650Z,68.44
2022-08-19T10:12:23.546Z,68.44
2022-08-19T10:13:23.578Z,69.02
2022-08-19T10:14:23.706Z,69.02
2022-08-19T10:15:28.765Z,68.28
2022-08-19T10:16:26.121Z,67.50
2022-08-19T10:17:27.426Z,67.41
2022-08-19T10:18:23.762Z,67.11
2022-08-19T10:19:25.455Z,67.08
2022-08-19T10:20:23.809Z,67.37
2022-08-19T10:21:23.844Z,67.37
2022-08-19T10:22:23.883Z,67.57
2022-08-19T10:23:23.909Z,67.21
2022-08-19T10:24:23.942Z,67.89
2022-08-19T10:25:23.974Z,67.89
2022-08-19T10:26:24.004Z,66.14
2022-08-19T10:27:24.042Z,67.05
2022-08-19T10:28:24.069Z,66.27
2022-08-19T10:29:32.643Z,66.66
2022-08-19T10:30:24.873Z,65.20
2022-08-19T10:32:00.969Z,65.01
2022-08-19T10:32:33.847Z,65.14
2022-08-19T10:33:38.296Z,65.72
2022-08-19T10:34:27.900Z,63.87
2022-08-19T10:35:24.305Z,64.46
2022-08-19T10:36:24.345Z,63.55
2022-08-19T10:37:29.121Z,64.07
2022-08-19T10:38:31.639Z,64.14
2022-08-19T10:39:24.460Z,64.04
2022-08-19T10:40:24.574Z,64.23
2022-08-19T10:41:24.504Z,65.30
2022-08-19T10:42:24.537Z,65.01
2022-08-19T10:43:24.608Z,65.01
2022-08-19T10:44:24.604Z,64.81
2022-08-19T10:45:24.635Z,65.01
2022-08-19T10:46:24.670Z,66.08
2022-08-19T10:47:26.109Z,65.01
2022-08-19T10:48:24.736Z,64.91
2022-08-19T10:49:24.766Z,65.69
2022-08-19T10:50:28.445Z,64.91
2022-08-19T10:51:24.835Z,64.46
2022-08-19T10:52:32.325Z,63.94
2022-08-19T10:53:24.913Z,63.78
2022-08-19T10:54:32.138Z,63.68
2022-08-19T10:55:24.971Z,62.81
2022-08-19T10:56:25.011Z,63.68
2022-08-19T10:57:27.904Z,62.51
2022-08-19T10:58:25.084Z,62.51
2022-08-19T10:59:26.858Z,62.64
2022-08-19T11:00:25.131Z,62.23
2022-08-19T11:01:25.199Z,62.51
2022-08-19T11:02:25.206Z,62.26
2022-08-19T11:03:25.234Z,61.15
2022-08-19T11:04:28.867Z,61.44
2022-08-19T11:05:25.303Z,60.60
2022-08-19T11:06:25.334Z,62.32
2022-08-19T11:07:25.373Z,60.96
2022-08-19T11:08:25.402Z,61.18
2022-08-19T11:09:33.275Z,62.74
2022-08-19T11:10:25.472Z,62.93
2022-08-19T11:11:25.509Z,61.21
2022-08-19T11:12:25.545Z,61.15
2022-08-19T11:13:25.635Z,60.56
2022-08-19T11:14:25.605Z,59.10
2022-08-19T11:15:25.638Z,59.78
2022-08-19T11:16:25.674Z,60.46
2022-08-19T11:17:25.713Z,60.49
2022-08-19T11:18:25.739Z,58.74
2022-08-19T11:19:25.774Z,58.35
2022-08-19T11:20:25.815Z,58.32
2022-08-19T11:21:25.843Z,58.32
2022-08-19T11:22:28.841Z,58.81
2022-08-19T11:23:25.909Z,59.39
2022-08-19T11:24:25.944Z,58.81
2022-08-19T11:25:25.978Z,58.91
2022-08-19T11:26:26.012Z,59.78
2022-08-19T11:27:26.049Z,59.98
2022-08-19T11:28:26.077Z,60.17
2022-08-19T11:29:26.113Z,60.08
2022-08-19T11:30:26.142Z,60.27
2022-08-19T11:31:28.934Z,59.98
2022-08-19T11:32:26.214Z,60.36
2022-08-19T11:33:26.252Z,59.17
2022-08-19T11:34:26.284Z,59.95
2022-08-19T11:35:26.320Z,59.07
2022-08-19T11:36:26.352Z,59.98
2022-08-19T11:37:26.386Z,59.07
2022-08-19T11:38:26.421Z,58.59
2022-08-19T11:39:26.453Z,57.12
2022-08-19T11:40:26.487Z,57.12
2022-08-19T11:41:26.524Z,57.59
2022-08-19T11:42:26.557Z,58.26
2022-08-19T11:43:26.586Z,57.78
2022-08-19T11:44:26.623Z,58.65
2022-08-19T11:45:26.670Z,58.65
2022-08-19T11:46:26.691Z,58.85
2022-08-19T11:47:26.720Z,57.49
2022-08-19T11:48:26.765Z,58.26
2022-08-19T11:49:26.792Z,59.33
2022-08-19T11:50:26.829Z,59.23
2022-08-19T11:51:26.859Z,59.92
2022-08-19T11:52:26.896Z,58.65
2022-08-19T11:53:26.931Z,59.53
2022-08-19T11:54:26.963Z,58.65
2022-08-19T11:55:26.990Z,58.75
2022-08-19T11:56:27.025Z,58.46
2022-08-19T11:57:27.060Z,58.65
2022-08-19T11:58:27.092Z,59.14
2022-08-19T11:59:27.139Z,58.65
2022-08-19T12:00:27.154Z,58.17
2022-08-19T12:01:27.194Z,58.65
2022-08-19T12:02:27.227Z,58.85
2022-08-19T12:03:27.328Z,59.36
2022-08-19T12:04:27.296Z,59.36
2022-08-19T12:05:27.326Z,58.97
2022-08-19T12:06:27.364Z,59.05
2022-08-19T12:07:27.395Z,59.43
2022-08-19T12:08:27.426Z,59.23
2022-08-19T12:09:27.459Z,59.63
2022-08-19T12:10:27.493Z,60.41
2022-08-19T12:11:27.528Z,59.82
2022-08-19T12:12:27.566Z,60.50
2022-08-19T12:13:27.592Z,59.85
2022-08-19T12:14:27.628Z,59.17
2022-08-19T12:15:27.662Z,58.97
2022-08-19T12:16:27.696Z,59.95
2022-08-19T12:17:27.738Z,59.46
2022-08-19T12:18:27.768Z,59.66
2022-08-19T12:19:27.810Z,58.49
2022-08-19T12:20:27.830Z,57.42
2022-08-19T12:21:27.861Z,55.66
2022-08-19T12:22:27.896Z,55.37
2022-08-19T12:23:27.933Z,55.37
2022-08-19T12:24:27.963Z,55.47
2022-08-19T12:25:27.999Z,55.57
2022-08-19T12:26:28.030Z,56.35
2022-08-19T12:27:32.138Z,56.05
2022-08-19T12:28:28.098Z,56.15
2022-08-19T12:29:28.133Z,56.15
2022-08-19T12:30:28.162Z,56.84
2022-08-19T12:31:28.199Z,56.64
2022-08-19T12:32:28.231Z,56.35
2022-08-19T12:33:28.267Z,57.12
2022-08-19T12:34:28.301Z,56.76
2022-08-19T12:35:28.333Z,56.67
2022-08-19T12:36:28.366Z,56.76
2022-08-19T12:37:28.399Z,55.60
2022-08-19T12:38:28.432Z,55.23
2022-08-19T12:39:28.468Z,54.91
2022-08-19T12:40:28.501Z,54.91
2022-08-19T12:41:28.535Z,54.91
2022-08-19T12:42:28.570Z,54.82
2022-08-19T12:43:28.599Z,55.30
2022-08-19T12:44:29.288Z,56.09
2022-08-19T12:45:28.666Z,56.74
2022-08-19T12:46:28.698Z,56.54
2022-08-19T12:47:28.738Z,55.96
2022-08-19T12:48:33.265Z,55.50
2022-08-19T12:49:52.007Z,55.37
2022-08-19T12:50:28.839Z,55.57
2022-08-19T12:51:28.876Z,55.47
2022-08-19T12:52:28.905Z,55.86
2022-08-19T12:53:28.940Z,56.57
2022-08-19T12:54:28.976Z,55.60
2022-08-19T12:55:29.010Z,56.18
2022-08-19T12:56:29.039Z,55.96
2022-08-19T12:57:32.933Z,56.64
2022-08-19T12:58:29.108Z,56.64
2022-08-19T12:59:29.145Z,57.22
2022-08-19T13:00:29.191Z,57.81
2022-08-19T13:03:38.691Z,57.35
2022-08-19T13:04:11.976Z,57.54
2022-08-19T13:07:08.937Z,55.79
2022-08-19T13:08:08.962Z,55.69
2022-08-19T13:10:13.465Z,56.09
2022-08-19T13:11:13.020Z,56.57
2022-08-19T13:13:17.053Z,56.64
2022-08-19T13:14:17.081Z,56.74
2022-08-19T13:16:21.594Z,57.22
2022-08-19T13:17:21.140Z,57.42
2022-08-19T13:19:25.174Z,57.06
2022-08-19T13:20:25.200Z,56.76
2022-08-19T13:22:30.220Z,55.21
2022-08-19T13:23:29.265Z,54.43
2022-08-19T13:25:33.763Z,53.65
2022-08-19T13:26:33.322Z,54.03
2022-08-19T13:28:37.392Z,53.45
2022-08-19T13:31:01.874Z,52.70
2022-08-19T13:32:01.446Z,52.60
2022-08-19T13:34:05.888Z,51.34
2022-08-19T13:35:05.711Z,52.31
2022-08-19T13:38:14.206Z,50.97
2022-08-19T13:39:13.766Z,50.80
2022-08-19T13:41:17.818Z,50.68
2022-08-19T13:42:17.841Z,50.97
2022-08-19T13:44:22.343Z,52.60
2022-08-19T13:45:21.902Z,52.31
2022-08-19T13:47:14.851Z,53.38
2022-08-19T13:48:14.878Z,53.87
2022-08-19T13:50:19.378Z,53.45
2022-08-19T13:52:49.909Z,53.75
2022-08-19T13:53:46.276Z,54.01
2022-08-19T13:54:43.022Z,54.01
2022-08-19T13:55:43.052Z,54.69
2022-08-19T13:56:43.085Z,54.89
2022-08-19T13:57:43.122Z,55.40
2022-08-19T13:58:43.155Z,54.62
2022-08-19T13:59:43.184Z,54.13
2022-08-19T14:00:43.315Z,54.13
2022-08-19T14:01:43.264Z,54.46
2022-08-19T14:02:43.290Z,53.67
2022-08-19T14:03:43.318Z,53.97
2022-08-19T14:04:43.356Z,53.67
2022-08-19T14:05:43.386Z,53.41
2022-08-19T14:06:43.423Z,53.60
2022-08-19T14:07:43.458Z,53.80
2022-08-19T14:08:46.246Z,53.89
2022-08-19T14:09:43.525Z,52.75
2022-08-19T14:10:43.579Z,52.17
2022-08-19T14:11:43.596Z,53.02
2022-08-19T14:12:43.631Z,53.34
2022-08-19T14:13:43.664Z,52.26
2022-08-19T14:14:43.700Z,51.51
2022-08-19T14:15:43.737Z,50.63
2022-08-19T14:16:43.766Z,51.31
2022-08-19T14:17:43.804Z,51.80
2022-08-19T14:18:43.839Z,51.41
2022-08-19T14:19:43.874Z,50.82
2022-08-19T14:20:43.912Z,51.41
2022-08-19T14:21:43.939Z,51.21
2022-08-19T14:22:43.975Z,51.68
2022-08-19T14:23:44.009Z,51.09
2022-08-19T14:24:47.786Z,51.29
2022-08-19T14:25:44.079Z,51.75
2022-08-19T14:26:44.112Z,51.39
2022-08-19T14:27:44.148Z,52.17
2022-08-19T14:28:44.184Z,52.34
2022-08-19T14:29:44.214Z,52.36
2022-08-19T14:30:44.252Z,52.66
2022-08-19T14:31:44.285Z,52.66
2022-08-19T14:32:44.349Z,52.66
2022-08-19T14:33:51.522Z,52.63
2022-08-19T14:35:37.847Z,53.80
2022-08-19T14:36:39.234Z,53.21
2022-08-19T14:38:41.859Z,52.92
2022-08-19T14:39:41.473Z,52.92
2022-08-19T14:40:41.456Z,52.83
2022-08-19T14:41:41.489Z,53.02
2022-08-19T14:42:41.522Z,53.02
2022-08-19T14:43:41.581Z,52.63
2022-08-19T14:44:41.593Z,53.11
2022-08-19T14:45:41.629Z,53.21
2022-08-19T14:46:41.656Z,52.53
2022-08-19T14:47:41.700Z,52.17
2022-08-19T14:48:41.732Z,52.17
2022-08-19T14:49:43.953Z,52.26
2022-08-19T14:50:41.795Z,51.58
2022-08-19T14:51:41.828Z,51.80
2022-08-19T14:52:41.866Z,51.31
2022-08-19T14:53:41.902Z,51.12
2022-08-19T14:54:41.935Z,51.12
2022-08-19T14:55:41.970Z,51.12
2022-08-19T14:56:42.005Z,50.14
2022-08-19T14:57:42.035Z,50.14
2022-08-19T14:58:42.120Z,49.56
2022-08-19T14:59:42.107Z,49.56
2022-08-19T15:00:42.157Z,49.54
2022-08-19T15:01:42.214Z,49.63
2022-08-19T15:02:42.269Z,49.73
2022-08-19T15:03:42.246Z,50.02
2022-08-19T15:04:42.280Z,50.31
2022-08-19T15:05:42.355Z,50.70